sensor_id;sensor_type;location;lat;lon;timestamp;P1;durP1;ratioP1;P2;durP2;ratioP2
76701;SDS011;65630;44.498;0.166;2022-12-18T00:12:17;51.57;;;25.70;;
76701;SDS011;65630;44.498;0.166;2022-12-18T00:26:10;40.80;;;21.50;;
76701;SDS011;65630;44.498;0.166;2022-12-18T00:39:58;75.30;;;39.53;;
76701;SDS011;65630;44.498;0.166;2022-12-18T00:53:49;56.33;;;30.83;;
76701;SDS011;65630;44.498;0.166;2022-12-18T01:07:41;53.57;;;30.37;;
76701;SDS011;65630;44.498;0.166;2022-12-18T01:21:32;88.60;;;41.87;;
76701;SDS011;65630;44.498;0.166;2022-12-18T01:49:12;61.33;;;31.53;;
76701;SDS011;65630;44.498;0.166;2022-12-18T02:03:03;61.17;;;31.47;;
76701;SDS011;65630;44.498;0.166;2022-12-18T02:16:55;79.27;;;36.83;;
76701;SDS011;65630;44.498;0.166;2022-12-18T02:30:46;-1.00;;;-1.00;;
76701;SDS011;65630;44.498;0.166;2022-12-18T02:44:42;50.80;;;25.53;;
76701;SDS011;65630;44.498;0.166;2022-12-18T02:58:29;61.77;;;29.10;;
76701;SDS011;65630;44.498;0.166;2022-12-18T03:12:19;49.27;;;25.80;;
76701;SDS011;65630;44.498;0.166;2022-12-18T03:26:09;63.03;;;30.03;;
76701;SDS011;65630;44.498;0.166;2022-12-18T03:39:58;73.97;;;32.63;;
76701;SDS011;65630;44.498;0.166;2022-12-18T03:53:49;77.60;;;31.20;;
76701;SDS011;65630;44.498;0.166;2022-12-18T04:07:39;83.73;;;33.17;;
76701;SDS011;65630;44.498;0.166;2022-12-18T04:21:30;76.47;;;29.00;;
76701;SDS011;65630;44.498;0.166;2022-12-18T04:35:20;86.60;;;31.60;;
76701;SDS011;65630;44.498;0.166;2022-12-18T04:49:10;80.03;;;28.90;;
76701;SDS011;65630;44.498;0.166;2022-12-18T05:03:02;72.80;;;25.90;;
76701;SDS011;65630;44.498;0.166;2022-12-18T05:16:53;56.83;;;22.30;;
76701;SDS011;65630;44.498;0.166;2022-12-18T05:30:47;59.00;;;23.33;;
76701;SDS011;65630;44.498;0.166;2022-12-18T05:44:35;56.27;;;23.53;;
76701;SDS011;65630;44.498;0.166;2022-12-18T05:58:26;43.60;;;19.83;;
76701;SDS011;65630;44.498;0.166;2022-12-18T06:12:17;27.10;;;14.77;;
76701;SDS011;65630;44.498;0.166;2022-12-18T06:26:09;23.20;;;13.63;;
76701;SDS011;65630;44.498;0.166;2022-12-18T06:39:59;22.83;;;13.50;;
76701;SDS011;65630;44.498;0.166;2022-12-18T06:53:49;26.37;;;12.33;;
76701;SDS011;65630;44.498;0.166;2022-12-18T07:07:40;24.30;;;14.67;;
76701;SDS011;65630;44.498;0.166;2022-12-18T07:21:31;24.33;;;15.20;;
76701;SDS011;65630;44.498;0.166;2022-12-18T07:35:20;25.00;;;12.80;;
76701;SDS011;65630;44.498;0.166;2022-12-18T07:49:11;21.40;;;12.17;;
76701;SDS011;65630;44.498;0.166;2022-12-18T08:03:05;20.10;;;11.40;;
76701;SDS011;65630;44.498;0.166;2022-12-18T08:16:52;18.57;;;10.57;;
76701;SDS011;65630;44.498;0.166;2022-12-18T08:30:44;12.37;;;8.37;;
76701;SDS011;65630;44.498;0.166;2022-12-18T08:44:36;14.80;;;8.90;;
76701;SDS011;65630;44.498;0.166;2022-12-18T08:58:29;-1.00;;;-1.00;;
76701;SDS011;65630;44.498;0.166;2022-12-18T09:12:21;13.20;;;6.67;;
76701;SDS011;65630;44.498;0.166;2022-12-18T09:26:13;8.50;;;5.77;;
76701;SDS011;65630;44.498;0.166;2022-12-18T09:40:12;11.50;;;6.93;;
76701;SDS011;65630;44.498;0.166;2022-12-18T09:53:58;7.97;;;5.93;;
76701;SDS011;65630;44.498;0.166;2022-12-18T10:07:49;7.90;;;5.50;;
76701;SDS011;65630;44.498;0.166;2022-12-18T10:21:38;10.73;;;6.00;;
76701;SDS011;65630;44.498;0.166;2022-12-18T10:35:29;6.97;;;4.57;;
76701;SDS011;65630;44.498;0.166;2022-12-18T10:49:22;7.43;;;4.70;;
76701;SDS011;65630;44.498;0.166;2022-12-18T11:17:16;6.63;;;4.10;;
76701;SDS011;65630;44.498;0.166;2022-12-18T11:44:50;5.43;;;3.53;;
76701;SDS011;65630;44.498;0.166;2022-12-18T11:58:45;6.60;;;3.63;;
76701;SDS011;65630;44.498;0.166;2022-12-18T12:12:33;7.03;;;3.20;;
76701;SDS011;65630;44.498;0.166;2022-12-18T12:26:23;6.87;;;3.97;;
76701;SDS011;65630;44.498;0.166;2022-12-18T12:40:12;6.00;;;3.60;;
76701;SDS011;65630;44.498;0.166;2022-12-18T12:54:02;12.60;;;5.63;;
76701;SDS011;65630;44.498;0.166;2022-12-18T13:07:53;7.20;;;4.77;;
76701;SDS011;65630;44.498;0.166;2022-12-18T13:21:42;5.77;;;4.43;;
76701;SDS011;65630;44.498;0.166;2022-12-18T13:35:41;12.83;;;4.70;;
76701;SDS011;65630;44.498;0.166;2022-12-18T13:49:26;-1.00;;;-1.00;;
76701;SDS011;65630;44.498;0.166;2022-12-18T14:03:18;6.37;;;3.93;;
76701;SDS011;65630;44.498;0.166;2022-12-18T14:17:08;4.17;;;3.73;;
76701;SDS011;65630;44.498;0.166;2022-12-18T14:30:57;4.40;;;3.30;;
76701;SDS011;65630;44.498;0.166;2022-12-18T14:44:47;4.17;;;2.50;;
76701;SDS011;65630;44.498;0.166;2022-12-18T14:58:36;6.00;;;3.70;;
76701;SDS011;65630;44.498;0.166;2022-12-18T15:12:28;5.63;;;3.73;;
76701;SDS011;65630;44.498;0.166;2022-12-18T15:26:16;6.27;;;3.80;;
76701;SDS011;65630;44.498;0.166;2022-12-18T15:40:07;8.90;;;4.23;;
76701;SDS011;65630;44.498;0.166;2022-12-18T15:53:59;5.80;;;3.70;;
76701;SDS011;65630;44.498;0.166;2022-12-18T16:07:48;6.37;;;4.03;;
76701;SDS011;65630;44.498;0.166;2022-12-18T16:21:39;5.57;;;3.60;;
76701;SDS011;65630;44.498;0.166;2022-12-18T16:35:31;11.93;;;3.97;;
76701;SDS011;65630;44.498;0.166;2022-12-18T16:49:19;8.33;;;4.17;;
76701;SDS011;65630;44.498;0.166;2022-12-18T17:03:10;6.00;;;3.80;;
76701;SDS011;65630;44.498;0.166;2022-12-18T17:17:01;7.10;;;4.60;;
76701;SDS011;65630;44.498;0.166;2022-12-18T17:30:53;7.70;;;4.20;;
76701;SDS011;65630;44.498;0.166;2022-12-18T17:44:43;6.77;;;5.07;;
76701;SDS011;65630;44.498;0.166;2022-12-18T17:58:34;8.93;;;5.40;;
76701;SDS011;65630;44.498;0.166;2022-12-18T18:12:24;9.20;;;5.20;;
76701;SDS011;65630;44.498;0.166;2022-12-18T18:26:16;6.17;;;4.70;;
76701;SDS011;65630;44.498;0.166;2022-12-18T18:40:07;9.67;;;4.13;;
76701;SDS011;65630;44.498;0.166;2022-12-18T18:53:57;9.10;;;5.77;;
76701;SDS011;65630;44.498;0.166;2022-12-18T19:07:48;8.93;;;5.53;;
76701;SDS011;65630;44.498;0.166;2022-12-18T19:21:39;10.80;;;5.67;;
76701;SDS011;65630;44.498;0.166;2022-12-18T19:35:30;15.57;;;6.80;;
76701;SDS011;65630;44.498;0.166;2022-12-18T19:49:21;10.80;;;5.33;;
76701;SDS011;65630;44.498;0.166;2022-12-18T20:03:11;25.47;;;12.47;;
76701;SDS011;65630;44.498;0.166;2022-12-18T20:17:02;10.10;;;5.30;;
76701;SDS011;65630;44.498;0.166;2022-12-18T20:30:57;15.47;;;5.53;;
76701;SDS011;65630;44.498;0.166;2022-12-18T20:44:45;13.33;;;4.63;;
76701;SDS011;65630;44.498;0.166;2022-12-18T20:58:36;14.70;;;5.23;;
76701;SDS011;65630;44.498;0.166;2022-12-18T21:12:27;28.07;;;8.20;;
76701;SDS011;65630;44.498;0.166;2022-12-18T21:26:18;19.30;;;5.97;;
76701;SDS011;65630;44.498;0.166;2022-12-18T21:40:08;11.53;;;4.70;;
76701;SDS011;65630;44.498;0.166;2022-12-18T21:53:59;10.63;;;4.83;;
76701;SDS011;65630;44.498;0.166;2022-12-18T22:07:50;18.67;;;6.33;;
76701;SDS011;65630;44.498;0.166;2022-12-18T22:21:41;16.87;;;6.27;;
76701;SDS011;65630;44.498;0.166;2022-12-18T22:35:30;11.10;;;5.17;;
76701;SDS011;65630;44.498;0.166;2022-12-18T22:49:28;16.23;;;6.50;;
76701;SDS011;65630;44.498;0.166;2022-12-18T23:03:12;22.67;;;7.67;;
76701;SDS011;65630;44.498;0.166;2022-12-18T23:17:03;13.90;;;4.20;;
76701;SDS011;65630;44.498;0.166;2022-12-18T23:30:53;16.73;;;4.67;;
76701;SDS011;65630;44.498;0.166;2022-12-18T23:44:43;15.90;;;5.17;;
76701;SDS011;65630;44.498;0.166;2022-12-18T23:58:33;29.93;;;5.53;;
